Time;durP1;ratioP1;P1;durP2;ratioP2;P2;SDS_P1;SDS_P2;PMS_P1;PMS_P2;Temp;Humidity;BMP_temperature;BMP_pressure;BME280_temperature;BME280_humidity;BME280_pressure;Samples;Min_cycle;Max_cycle;Signal;HPM_P1;HPM_P2
2021/12/29 00:02:18;;;;;;;17.35;9.20;;;;;;;7.67;100.00;99771.47;5022779;28;20092;-68
2021/12/29 00:04:44;;;;;;;21.45;9.27;;;;;;;7.60;100.00;99772.09;5024432;28;20041;-68
2021/12/29 00:07:10;;;;;;;19.10;9.52;;;;;;;7.62;100.00;99774.53;5022606;28;20057;-68
2021/12/29 00:09:42;;;;;;;16.75;9.32;;;;;;;7.62;100.00;99776.31;5007216;28;20037;-68
2021/12/29 00:12:09;;;;;;;21.00;10.10;;;;;;;7.62;100.00;99786.63;5023095;28;20403;-68
2021/12/29 00:14:36;;;;;;;16.27;8.27;;;;;;;7.62;100.00;99790.00;5012112;28;20376;-68
2021/12/29 00:17:03;;;;;;;21.63;9.65;;;;;;;7.62;100.00;99805.47;5007532;28;20036;-68
2021/12/29 00:19:29;;;;;;;17.30;9.25;;;;;;;7.67;100.00;99807.59;5006274;28;20033;-69
2021/12/29 00:21:54;;;;;;;20.17;8.80;;;;;;;7.67;100.00;99812.75;5006227;28;20033;-68
2021/12/29 00:24:20;;;;;;;17.70;9.10;;;;;;;7.67;100.00;99805.03;5025722;28;20559;-68
2021/12/29 00:26:46;;;;;;;15.70;9.55;;;;;;;7.69;100.00;99813.41;5008624;28;20044;-68
2021/12/29 00:29:11;;;;;;;18.15;9.02;;;;;;;7.68;100.00;99812.56;5008544;28;20026;-68
2021/12/29 00:31:39;;;;;;;18.88;9.73;;;;;;;7.67;100.00;99823.09;4992385;28;20033;-67
2021/12/29 00:34:28;;;;;;;19.75;10.65;;;;;;;7.67;100.00;99836.78;5018749;28;20033;-67
2021/12/29 00:37:12;;;;;;;20.33;10.90;;;;;;;7.64;100.00;99836.28;5027830;28;20466;-68
2021/12/29 00:39:56;;;;;;;21.15;10.98;;;;;;;7.66;100.00;99852.41;5026933;28;20818;-68
2021/12/29 00:42:41;;;;;;;17.83;10.45;;;;;;;7.72;100.00;99864.69;5026059;28;20040;-68
2021/12/29 00:45:26;;;;;;;24.77;11.27;;;;;;;7.70;100.00;99874.34;5036803;22;20052;-69
2021/12/29 00:47:53;;;;;;;21.60;12.38;;;;;;;7.70;100.00;99882.88;5046781;28;20127;-70
2021/12/29 00:50:19;;;;;;;26.00;13.20;;;;;;;7.70;100.00;99882.09;5047705;28;20107;-69
2021/12/29 00:52:46;;;;;;;22.00;12.70;;;;;;;7.72;100.00;99887.91;5065029;28;20059;-70
2021/12/29 00:55:13;;;;;;;26.40;14.07;;;;;;;7.69;100.00;99890.81;5044031;28;20041;-69
2021/12/29 00:57:39;;;;;;;25.38;13.43;;;;;;;7.69;100.00;99898.56;5058798;28;20025;-70
2021/12/29 01:00:08;;;;;;;25.50;14.30;;;;;;;7.71;100.00;99907.75;5050066;28;20063;-71
2021/12/29 01:02:34;;;;;;;24.58;14.00;;;;;;;7.71;100.00;99917.28;5066197;28;20047;-70
2021/12/29 01:04:59;;;;;;;24.55;14.43;;;;;;;7.70;100.00;99920.81;5041908;28;20395;-70
2021/12/29 01:07:25;;;;;;;27.63;13.65;;;;;;;7.67;100.00;99921.13;5051263;28;20446;-70
2021/12/29 01:09:51;;;;;;;26.58;14.90;;;;;;;7.68;100.00;99926.13;5043736;28;20028;-71
2021/12/29 01:12:17;;;;;;;31.25;14.98;;;;;;;7.67;100.00;99937.41;5039099;28;20029;-71
2021/12/29 01:14:52;;;;;;;23.58;14.15;;;;;;;7.64;100.00;99944.66;5046788;28;20032;-71
2021/12/29 01:17:18;;;;;;;26.73;14.40;;;;;;;7.65;100.00;99941.09;5065335;28;20036;-70
2021/12/29 01:19:43;;;;;;;26.60;14.43;;;;;;;7.67;100.00;99954.69;5058887;28;20079;-70
2021/12/29 01:22:10;;;;;;;25.13;13.90;;;;;;;7.65;100.00;99954.00;5067583;28;20089;-71
2021/12/29 01:24:36;;;;;;;26.23;14.13;;;;;;;7.64;100.00;99960.94;5040993;28;20031;-70
2021/12/29 01:27:02;;;;;;;27.02;14.77;;;;;;;7.62;100.00;99969.81;5046200;28;20028;-70
2021/12/29 01:29:30;;;;;;;27.42;14.13;;;;;;;7.64;100.00;99967.88;5046197;28;20456;-70
2021/12/29 01:31:57;;;;;;;30.50;13.35;;;;;;;7.61;100.00;99969.03;5045389;28;20063;-70
2021/12/29 01:34:23;;;;;;;22.85;13.13;;;;;;;7.64;100.00;99971.25;5044768;28;20025;-70
2021/12/29 01:36:49;;;;;;;23.08;12.55;;;;;;;7.64;100.00;99973.03;5046601;28;20064;-70
2021/12/29 01:39:16;;;;;;;22.80;13.45;;;;;;;7.66;100.00;99982.25;5037791;28;20037;-70
2021/12/29 01:41:45;;;;;;;28.15;12.95;;;;;;;7.65;100.00;99985.81;5045637;28;20529;-70
2021/12/29 01:44:12;;;;;;;28.35;13.07;;;;;;;7.67;100.00;99991.59;5067123;28;20254;-70
2021/12/29 01:46:39;;;;;;;24.55;13.68;;;;;;;7.65;100.00;99995.28;5038997;28;20643;-70
2021/12/29 01:49:05;;;;;;;23.15;11.98;;;;;;;7.64;100.00;99998.84;5047780;28;20358;-71
2021/12/29 01:51:31;;;;;;;23.48;13.13;;;;;;;7.62;100.00;100008.53;5061909;28;20037;-70
2021/12/29 01:54:15;;;;;;;20.33;12.50;;;;;;;7.62;100.00;100009.31;5043048;28;20024;-70
2021/12/29 01:56:44;;;;;;;25.92;13.32;;;;;;;7.61;100.00;100015.47;5063016;28;20040;-70
2021/12/29 01:59:14;;;;;;;22.90;13.20;;;;;;;7.64;100.00;100024.66;5048753;28;20032;-70
2021/12/29 02:01:40;;;;;;;27.05;14.05;;;;;;;7.62;100.00;100034.31;5069742;28;20094;-70
2021/12/29 02:04:06;;;;;;;29.25;14.90;;;;;;;7.64;100.00;100040.94;5065050;28;20067;-69
2021/12/29 02:06:32;;;;;;;28.27;15.68;;;;;;;7.66;100.00;100045.94;5031067;28;20051;-69
2021/12/29 02:08:58;;;;;;;26.13;15.48;;;;;;;7.63;100.00;100051.41;5063629;28;20111;-70
2021/12/29 02:11:29;;;;;;;25.88;14.40;;;;;;;7.63;100.00;100047.06;5043555;28;20052;-70
2021/12/29 02:14:03;;;;;;;26.17;15.25;;;;;;;7.62;100.00;100054.97;5039443;28;20032;-70
2021/12/29 02:16:30;;;;;;;29.35;15.07;;;;;;;7.60;100.00;100058.50;5029414;28;20032;-70
2021/12/29 02:18:58;;;;;;;29.77;15.82;;;;;;;7.59;100.00;100067.22;5062964;28;20115;-69
2021/12/29 02:21:27;;;;;;;29.63;15.40;;;;;;;7.62;100.00;100066.09;5034522;28;20477;-71
2021/12/29 02:24:16;;;;;;;25.92;16.20;;;;;;;7.62;100.00;100065.28;5063816;28;20116;-70
2021/12/29 02:26:43;;;;;;;30.95;15.75;;;;;;;7.56;100.00;100070.09;5055752;28;20119;-70
2021/12/29 02:29:11;;;;;;;29.02;15.70;;;;;;;7.54;100.00;100074.59;5046294;28;20024;-70
2021/12/29 02:31:38;;;;;;;29.38;15.27;;;;;;;7.56;100.00;100085.56;5060551;28;20028;-70
2021/12/29 02:34:08;;;;;;;32.78;17.13;;;;;;;7.56;100.00;100080.41;5061419;28;20386;-71
2021/12/29 02:36:42;;;;;;;30.10;16.10;;;;;;;7.54;100.00;100095.25;5041705;28;20386;-70
2021/12/29 02:39:10;;;;;;;32.80;16.65;;;;;;;7.56;100.00;100089.94;5060257;28;20028;-71
2021/12/29 02:41:37;;;;;;;31.40;16.88;;;;;;;7.53;100.00;100093.63;5049335;28;20044;-70
2021/12/29 02:44:04;;;;;;;32.03;17.23;;;;;;;7.50;100.00;100093.13;5064440;28;20078;-71
2021/12/29 02:46:32;;;;;;;36.85;17.92;;;;;;;7.52;100.00;100091.22;5055684;28;20025;-70
2021/12/29 02:48:59;;;;;;;32.65;17.17;;;;;;;7.51;100.00;100102.47;5036527;28;20108;-70
2021/12/29 02:51:30;;;;;;;37.88;17.98;;;;;;;7.51;100.00;100105.06;5039994;28;20553;-70
2021/12/29 02:53:56;;;;;;;31.45;16.58;;;;;;;7.53;100.00;100105.72;5065266;28;20047;-69
2021/12/29 02:56:26;;;;;;;37.20;19.48;;;;;;;7.53;100.00;100110.88;5063279;28;20076;-70
2021/12/29 02:58:54;;;;;;;34.38;16.98;;;;;;;7.59;100.00;100115.41;5059162;28;20016;-70
2021/12/29 03:01:20;;;;;;;35.33;18.95;;;;;;;7.52;100.00;100122.97;5052056;28;20041;-70
2021/12/29 03:03:46;;;;;;;34.10;18.20;;;;;;;7.54;100.00;100121.03;5046166;28;20030;-70
2021/12/29 03:06:12;;;;;;;31.98;17.25;;;;;;;7.51;100.00;100115.38;5061231;28;21075;-70
2021/12/29 03:08:39;;;;;;;38.25;18.05;;;;;;;7.50;100.00;100113.78;5062219;28;20028;-70
2021/12/29 03:11:06;;;;;;;33.35;18.02;;;;;;;7.49;100.00;100117.31;5062658;28;20025;-71
2021/12/29 03:13:36;;;;;;;35.42;19.13;;;;;;;7.49;100.00;100125.84;5055633;28;20024;-70
2021/12/29 03:16:03;;;;;;;36.78;19.27;;;;;;;7.47;100.00;100120.03;5041651;28;20032;-71
2021/12/29 03:18:29;;;;;;;36.15;19.52;;;;;;;7.46;100.00;100113.25;5061406;28;20029;-70
2021/12/29 03:20:55;;;;;;;34.03;18.95;;;;;;;7.49;100.00;100122.47;5045155;28;20037;-70
2021/12/29 03:23:21;;;;;;;39.13;19.50;;;;;;;7.52;100.00;100128.13;5054592;28;20035;-71
2021/12/29 03:25:48;;;;;;;34.67;19.33;;;;;;;7.48;100.00;100133.72;5056714;28;20162;-70
2021/12/29 03:28:18;;;;;;;33.10;20.20;;;;;;;7.46;100.00;100135.66;5043174;28;20053;-70
2021/12/29 03:30:48;;;;;;;32.67;18.73;;;;;;;7.49;100.00;100137.94;5057589;28;20199;-70
2021/12/29 03:33:14;;;;;;;32.55;17.50;;;;;;;7.49;100.00;100135.34;5040004;28;20510;-70
2021/12/29 03:35:42;;;;;;;36.70;19.05;;;;;;;7.49;100.00;100143.91;5036092;28;20028;-70
2021/12/29 03:38:12;;;;;;;24.98;16.73;;;;;;;7.52;100.00;100147.97;5043021;28;20094;-70
2021/12/29 03:40:38;;;;;;;35.60;18.95;;;;;;;7.51;100.00;100147.13;5058148;28;20454;-70
2021/12/29 03:43:06;;;;;;;31.08;18.77;;;;;;;7.50;100.00;100152.47;5041128;28;20424;-70
2021/12/29 03:45:32;;;;;;;34.53;18.45;;;;;;;7.55;100.00;100163.13;5038375;28;20039;-70
2021/12/29 03:47:58;;;;;;;36.38;19.23;;;;;;;7.48;100.00;100167.25;5032579;28;20025;-70
2021/12/29 03:50:23;;;;;;;36.67;17.98;;;;;;;7.46;100.00;100170.03;5041699;28;20397;-72
2021/12/29 03:52:49;;;;;;;34.35;19.58;;;;;;;7.48;100.00;100173.25;5041961;28;20513;-69
2021/12/29 03:55:15;;;;;;;33.83;18.63;;;;;;;7.45;100.00;100168.38;5059382;28;20066;-70
2021/12/29 03:57:41;;;;;;;34.17;18.75;;;;;;;7.51;100.00;100183.25;5051903;28;20514;-69
2021/12/29 04:00:11;;;;;;;36.05;17.83;;;;;;;7.53;100.00;100185.69;5063746;28;20103;-70
2021/12/29 04:02:37;;;;;;;30.58;17.70;;;;;;;7.46;100.00;100192.41;5059591;28;20486;-69
2021/12/29 04:05:05;;;;;;;31.95;17.40;;;;;;;7.46;100.00;100194.97;5035348;28;20071;-70
2021/12/29 04:07:31;;;;;;;33.13;18.35;;;;;;;7.46;100.00;100200.16;5059446;28;20506;-70
2021/12/29 04:09:57;;;;;;;29.10;17.02;;;;;;;7.48;100.00;100204.22;5064776;28;20082;-70
2021/12/29 04:12:23;;;;;;;31.92;17.00;;;;;;;7.53;100.00;100208.91;5076372;28;20029;-70
2021/12/29 04:14:49;;;;;;;29.50;16.92;;;;;;;7.47;100.00;100205.16;5067524;28;20123;-71
2021/12/29 04:17:18;;;;;;;32.83;16.90;;;;;;;7.51;100.00;100219.38;5062063;28;20107;-70
2021/12/29 04:22:43;;;;;;;29.60;16.83;;;;;;;7.49;100.00;100216.13;5002171;28;20051;-70
2021/12/29 04:25:08;;;;;;;25.80;15.43;;;;;;;7.52;100.00;100220.22;5048898;28;20047;-70
2021/12/29 04:27:34;;;;;;;29.55;15.02;;;;;;;7.52;100.00;100215.84;5063800;28;20045;-71
2021/12/29 04:30:00;;;;;;;27.73;15.50;;;;;;;7.50;100.00;100233.25;5050738;28;20097;-70
2021/12/29 04:32:26;;;;;;;30.35;14.93;;;;;;;7.50;100.00;100233.25;5066545;28;20040;-70
2021/12/29 04:34:51;;;;;;;25.88;15.57;;;;;;;7.48;100.00;100232.59;5072022;28;20028;-70
2021/12/29 04:37:17;;;;;;;30.00;15.70;;;;;;;7.49;100.00;100247.09;5064660;28;20079;-70
2021/12/29 04:39:43;;;;;;;28.10;16.10;;;;;;;7.44;100.00;100245.94;5077875;28;20538;-70
2021/12/29 04:42:08;;;;;;;25.40;14.00;;;;;;;7.45;100.00;100261.25;5050196;28;20029;-71
2021/12/29 04:44:34;;;;;;;24.13;15.95;;;;;;;7.46;100.00;100259.47;5047714;28;20137;-70
2021/12/29 04:47:00;;;;;;;37.47;15.43;;;;;;;7.49;100.00;100251.47;5062910;28;20024;-70
2021/12/29 04:49:29;;;;;;;26.80;16.00;;;;;;;7.43;100.00;100252.84;5050584;28;20064;-70
2021/12/29 04:52:02;;;;;;;31.73;17.38;;;;;;;7.44;100.00;100258.81;5040439;28;20029;-69
2021/12/29 04:54:29;;;;;;;28.58;16.30;;;;;;;7.43;100.00;100246.91;5066355;28;20128;-70
2021/12/29 04:56:55;;;;;;;28.00;16.38;;;;;;;7.40;100.00;100258.31;5045820;28;20036;-70
2021/12/29 04:59:22;;;;;;;29.90;16.38;;;;;;;7.45;100.00;100265.63;5056233;28;20035;-70
2021/12/29 05:01:48;;;;;;;27.25;16.10;;;;;;;7.49;100.00;100270.31;5064828;28;20131;-69
2021/12/29 05:04:21;;;;;;;27.55;15.48;;;;;;;7.46;100.00;100272.38;5024127;28;20147;-69
2021/12/29 05:09:30;;;;;;;28.90;15.02;;;;;;;7.41;100.00;100285.72;5068492;28;20345;-70
2021/12/29 05:11:59;;;;;;;34.38;16.52;;;;;;;7.41;100.00;100280.56;5042363;28;20067;-70
2021/12/29 05:14:25;;;;;;;29.75;16.75;;;;;;;7.44;100.00;100289.78;5061494;28;20131;-70
2021/12/29 05:16:50;;;;;;;26.92;15.88;;;;;;;7.42;100.00;100295.06;5062652;28;20021;-70
2021/12/29 05:19:16;;;;;;;29.23;16.30;;;;;;;7.37;100.00;100303.28;5067046;28;20544;-70
2021/12/29 05:21:42;;;;;;;36.08;16.75;;;;;;;7.41;100.00;100301.22;5058447;28;20055;-70
2021/12/29 05:24:08;;;;;;;31.42;17.30;;;;;;;7.37;100.00;100303.28;5065598;28;20255;-71
2021/12/29 05:26:35;;;;;;;30.33;17.98;;;;;;;7.41;100.00;100309.75;5045563;28;20041;-70
2021/12/29 05:29:02;;;;;;;27.60;16.85;;;;;;;7.40;100.00;100307.31;5046422;28;20025;-70
2021/12/29 05:31:27;;;;;;;37.08;18.05;;;;;;;7.38;100.00;100314.38;5044544;28;20020;-70
2021/12/29 05:33:55;;;;;;;33.22;18.45;;;;;;;7.38;100.00;100317.81;5063966;28;20048;-70
2021/12/29 05:36:20;;;;;;;35.33;18.42;;;;;;;7.34;100.00;100316.44;5059715;28;20638;-70
2021/12/29 05:38:46;;;;;;;33.95;17.80;;;;;;;7.39;100.00;100318.59;5059802;28;20566;-70
2021/12/29 05:41:13;;;;;;;31.48;17.38;;;;;;;7.38;100.00;100322.97;5062368;28;20112;-70
2021/12/29 05:43:40;;;;;;;35.20;17.80;;;;;;;7.37;100.00;100321.31;5046986;28;20060;-70
2021/12/29 05:46:05;;;;;;;33.80;17.20;;;;;;;7.38;100.00;100319.56;5060722;28;20021;-70
2021/12/29 05:48:33;;;;;;;34.42;18.65;;;;;;;7.39;100.00;100314.25;5027610;28;20040;-70
2021/12/29 05:51:00;;;;;;;37.83;17.60;;;;;;;7.37;100.00;100308.44;5043106;28;20052;-69
2021/12/29 05:53:25;;;;;;;34.90;18.98;;;;;;;7.33;100.00;100312.25;5047863;28;20033;-70
2021/12/29 05:55:51;;;;;;;33.63;17.48;;;;;;;7.34;100.00;100315.66;5039830;28;20043;-69
2021/12/29 05:58:17;;;;;;;35.70;18.85;;;;;;;7.37;100.00;100320.53;5044967;28;20036;-70
2021/12/29 06:00:43;;;;;;;35.88;18.77;;;;;;;7.34;100.00;100339.66;5067212;28;20068;-70
2021/12/29 06:03:10;;;;;;;36.05;16.90;;;;;;;7.41;100.00;100332.97;5041227;28;20022;-69
2021/12/29 06:05:37;;;;;;;31.38;16.50;;;;;;;7.45;100.00;100337.84;5041986;28;20423;-70
2021/12/29 06:08:03;;;;;;;30.80;16.45;;;;;;;7.40;100.00;100338.28;5037051;28;20024;-69
2021/12/29 06:10:30;;;;;;;30.77;16.48;;;;;;;7.37;100.00;100336.81;5028547;28;20175;-70
2021/12/29 06:12:56;;;;;;;39.50;16.15;;;;;;;7.36;100.00;100340.31;5047080;28;20035;-70
2021/12/29 06:15:22;;;;;;;28.98;15.90;;;;;;;7.37;100.00;100338.59;5036998;28;20104;-70
2021/12/29 06:17:48;;;;;;;29.38;16.02;;;;;;;7.35;100.00;100340.50;5035646;28;20447;-69
2021/12/29 06:20:14;;;;;;;35.30;16.88;;;;;;;7.32;100.00;100344.16;5064858;28;20040;-70
2021/12/29 06:22:41;;;;;;;37.75;18.95;;;;;;;7.30;100.00;100340.91;5046241;28;20047;-69
2021/12/29 06:25:10;;;;;;;30.58;18.17;;;;;;;7.32;100.00;100346.75;5038968;28;20056;-69
2021/12/29 06:27:36;;;;;;;32.70;17.00;;;;;;;7.30;100.00;100348.66;5040963;28;20071;-69
2021/12/29 06:30:03;;;;;;;31.30;16.50;;;;;;;7.32;100.00;100351.91;5025044;28;20032;-70
2021/12/29 06:32:28;;;;;;;33.80;18.92;;;;;;;7.35;100.00;100348.25;5063902;28;20072;-72
2021/12/29 06:34:55;;;;;;;34.63;17.85;;;;;;;7.31;100.00;100358.03;5062816;28;20493;-70
2021/12/29 06:37:21;;;;;;;44.53;21.65;;;;;;;7.32;100.00;100353.69;5041496;28;20068;-71
2021/12/29 06:39:47;;;;;;;35.72;19.60;;;;;;;7.36;100.00;100363.53;5035250;28;20029;-70
2021/12/29 06:42:15;;;;;;;31.05;16.95;;;;;;;7.36;100.00;100367.91;5044234;28;20029;-70
2021/12/29 06:44:41;;;;;;;31.70;15.45;;;;;;;7.34;100.00;100368.03;5038040;28;20039;-71
2021/12/29 06:47:07;;;;;;;28.67;15.40;;;;;;;7.34;100.00;100372.41;5082621;22;20183;-68
2021/12/29 06:49:34;;;;;;;24.10;14.52;;;;;;;7.33;100.00;100381.91;5057587;28;20817;-68
2021/12/29 06:52:01;;;;;;;28.95;14.95;;;;;;;7.32;100.00;100380.28;5058699;28;20588;-68
2021/12/29 06:54:28;;;;;;;29.10;14.77;;;;;;;7.31;100.00;100383.00;5058202;28;20036;-67
2021/12/29 06:56:54;;;;;;;29.83;13.63;;;;;;;7.32;100.00;100390.59;5047596;28;20131;-68
2021/12/29 06:59:20;;;;;;;24.02;12.93;;;;;;;7.31;100.00;100393.31;5039377;28;20059;-68
2021/12/29 07:01:46;;;;;;;24.00;13.45;;;;;;;7.32;100.00;100394.94;5037285;28;20036;-68
2021/12/29 07:04:12;;;;;;;29.58;13.60;;;;;;;7.29;100.00;100400.38;5044907;28;20029;-68
2021/12/29 07:06:37;;;;;;;25.35;12.68;;;;;;;7.31;100.00;100396.72;5037919;28;20044;-68
2021/12/29 07:09:04;;;;;;;26.38;12.65;;;;;;;7.38;100.00;100402.09;5036570;28;20112;-67
2021/12/29 07:11:29;;;;;;;22.80;12.57;;;;;;;7.32;100.00;100400.09;5058506;28;20034;-68
2021/12/29 07:13:57;;;;;;;26.38;13.20;;;;;;;7.33;100.00;100406.91;5028636;28;20051;-68
2021/12/29 07:16:23;;;;;;;27.30;13.27;;;;;;;7.29;100.00;100400.38;5032540;28;20129;-67
2021/12/29 07:18:49;;;;;;;27.48;11.95;;;;;;;7.29;100.00;100403.78;5040939;28;20186;-67
2021/12/29 07:21:15;;;;;;;21.88;12.43;;;;;;;7.30;100.00;100407.97;5039148;28;20059;-68
2021/12/29 07:23:41;;;;;;;28.65;13.55;;;;;;;7.27;100.00;100413.44;5040996;28;20765;-68
2021/12/29 07:26:07;;;;;;;27.15;13.48;;;;;;;7.27;100.00;100417.78;5045547;28;20052;-68
2021/12/29 07:28:32;;;;;;;22.80;12.02;;;;;;;7.28;100.00;100427.16;5026237;28;20036;-68
2021/12/29 07:30:58;;;;;;;23.02;12.55;;;;;;;7.27;100.00;100431.50;5043670;28;20067;-68
2021/12/29 07:33:24;;;;;;;23.60;11.68;;;;;;;7.31;100.00;100427.66;5039000;28;20068;-68
2021/12/29 07:35:50;;;;;;;23.77;12.50;;;;;;;7.32;100.00;100424.13;5028933;28;20049;-68
2021/12/29 07:38:16;;;;;;;25.02;12.60;;;;;;;7.30;100.00;100427.81;5042559;28;20112;-68
2021/12/29 07:40:42;;;;;;;27.70;12.27;;;;;;;7.30;100.00;100432.97;5035761;28;20072;-68
2021/12/29 07:43:08;;;;;;;24.83;13.57;;;;;;;7.27;100.00;100438.41;5046568;28;20044;-68
2021/12/29 07:45:34;;;;;;;25.13;11.85;;;;;;;7.25;100.00;100445.47;5042824;28;20113;-68
2021/12/29 07:48:02;;;;;;;27.38;12.50;;;;;;;7.30;100.00;100445.88;5048705;28;20483;-68
2021/12/29 07:50:27;;;;;;;22.02;11.07;;;;;;;7.27;100.00;100457.28;5048744;28;20029;-68
2021/12/29 07:52:53;;;;;;;23.98;12.00;;;;;;;7.26;100.00;100465.16;5045259;28;20037;-68
2021/12/29 07:55:19;;;;;;;32.47;14.43;;;;;;;7.24;100.00;100460.16;5037691;28;20037;-68
2021/12/29 07:57:45;;;;;;;23.00;11.60;;;;;;;7.24;100.00;100454.97;5040731;28;20488;-68
2021/12/29 08:00:12;;;;;;;22.52;10.50;;;;;;;7.22;100.00;100465.44;5041769;28;20055;-68
2021/12/29 08:02:39;;;;;;;20.80;10.98;;;;;;;7.24;100.00;100461.91;5044548;28;20059;-67
2021/12/29 08:05:08;;;;;;;25.35;10.68;;;;;;;7.21;100.00;100470.72;5041579;28;20068;-68
2021/12/29 08:07:34;;;;;;;19.75;10.57;;;;;;;7.24;100.00;100469.66;5044636;28;20040;-68
2021/12/29 08:10:00;;;;;;;21.63;10.07;;;;;;;7.24;100.00;100475.63;5043627;28;20029;-68
2021/12/29 08:12:27;;;;;;;23.15;10.88;;;;;;;7.30;100.00;100475.03;5040153;28;20026;-67
2021/12/29 08:14:53;;;;;;;22.05;10.35;;;;;;;7.34;100.00;100486.69;5044271;28;20033;-68
2021/12/29 08:17:18;;;;;;;17.52;9.77;;;;;;;7.32;100.00;100470.56;5045633;28;20036;-67
2021/12/29 08:19:45;;;;;;;17.27;9.73;;;;;;;7.33;100.00;100471.38;5047081;28;20025;-68
2021/12/29 08:22:11;;;;;;;23.08;10.00;;;;;;;7.31;100.00;100479.25;5028704;28;20043;-68
2021/12/29 08:24:37;;;;;;;17.63;8.90;;;;;;;7.32;100.00;100485.22;5044447;28;20037;-67
2021/12/29 08:27:04;;;;;;;23.73;9.90;;;;;;;7.33;100.00;100484.28;5027254;28;20029;-67
2021/12/29 08:29:30;;;;;;;19.23;10.02;;;;;;;7.31;100.00;100471.53;5042337;28;20036;-68
2021/12/29 08:31:57;;;;;;;19.17;9.30;;;;;;;7.30;100.00;100480.19;5046758;28;20036;-68
2021/12/29 08:34:24;;;;;;;21.52;12.18;;;;;;;7.30;100.00;100480.19;5043032;28;20048;-67
2021/12/29 08:36:50;;;;;;;34.65;14.85;;;;;;;7.31;100.00;100484.41;5042170;28;20035;-68
2021/12/29 08:39:18;;;;;;;18.77;9.77;;;;;;;7.32;100.00;100480.06;5039378;28;20064;-68
2021/12/29 08:41:45;;;;;;;20.30;8.77;;;;;;;7.34;100.00;100483.31;5040433;28;20186;-68
2021/12/29 08:44:11;;;;;;;13.93;7.70;;;;;;;7.40;100.00;100491.31;5046569;28;20507;-68
2021/12/29 08:46:37;;;;;;;12.73;7.70;;;;;;;7.40;100.00;100490.47;5022518;28;20032;-68
2021/12/29 08:49:03;;;;;;;29.15;15.23;;;;;;;7.36;100.00;100483.97;5054793;28;20504;-67
2021/12/29 08:51:29;;;;;;;38.35;20.40;;;;;;;7.37;100.00;100485.63;5045289;28;20355;-68
2021/12/29 08:53:57;;;;;;;32.42;17.35;;;;;;;7.37;100.00;100481.25;5042629;28;20559;-68
2021/12/29 08:56:24;;;;;;;33.00;14.60;;;;;;;7.37;100.00;100483.03;5026291;28;20494;-68
2021/12/29 08:58:51;;;;;;;33.40;14.18;;;;;;;7.37;100.00;100478.69;5040955;28;20033;-68
2021/12/29 09:01:18;;;;;;;17.15;9.48;;;;;;;7.39;100.00;100481.94;5045719;28;20056;-68
2021/12/29 09:03:44;;;;;;;18.55;9.88;;;;;;;7.41;100.00;100480.00;5041682;28;20040;-68
2021/12/29 09:06:10;;;;;;;17.23;9.80;;;;;;;7.44;100.00;100481.50;5038775;28;20037;-68
2021/12/29 09:08:37;;;;;;;26.27;12.90;;;;;;;7.44;100.00;100489.25;5042091;28;20033;-68
2021/12/29 09:11:03;;;;;;;22.10;11.98;;;;;;;7.44;100.00;100486.69;5046739;28;20028;-68
2021/12/29 09:13:29;;;;;;;23.17;9.38;;;;;;;7.46;100.00;100487.34;5040250;28;20063;-68
2021/12/29 09:15:57;;;;;;;33.42;12.35;;;;;;;7.56;99.90;100488.09;5045706;28;20494;-68
2021/12/29 09:18:27;;;;;;;21.90;11.82;;;;;;;7.54;99.44;100492.59;5045172;28;20449;-68
2021/12/29 09:20:55;;;;;;;40.42;17.67;;;;;;;7.59;99.66;100498.13;5039112;28;20129;-68
2021/12/29 09:23:21;;;;;;;30.02;13.27;;;;;;;7.62;99.71;100488.47;5044090;28;20398;-68
2021/12/29 09:25:47;;;;;;;17.55;9.90;;;;;;;7.63;99.94;100493.50;5042181;28;20083;-68
2021/12/29 09:28:16;;;;;;;22.35;10.85;;;;;;;7.67;99.79;100496.63;5040349;28;20057;-68
2021/12/29 09:30:45;;;;;;;23.25;11.10;;;;;;;7.72;99.76;100499.56;5040771;28;20474;-68
2021/12/29 09:33:11;;;;;;;15.98;8.15;;;;;;;7.75;99.34;100507.00;5047634;28;20028;-68
2021/12/29 09:35:38;;;;;;;14.23;8.40;;;;;;;7.73;98.96;100506.34;5043996;28;20513;-68
2021/12/29 09:38:07;;;;;;;18.55;7.35;;;;;;;7.74;98.83;100503.63;5043565;28;20029;-68
2021/12/29 09:40:34;;;;;;;12.10;6.75;;;;;;;7.76;98.83;100506.88;5038151;28;20123;-68
2021/12/29 09:43:00;;;;;;;13.63;7.68;;;;;;;7.82;98.61;100505.50;5039751;28;20080;-68
2021/12/29 09:45:27;;;;;;;12.07;7.45;;;;;;;7.83;98.49;100504.50;5019291;28;20110;-67
2021/12/29 09:47:56;;;;;;;13.77;7.07;;;;;;;7.85;98.45;100504.38;5041379;28;20025;-68
2021/12/29 09:50:22;;;;;;;14.82;7.25;;;;;;;7.91;98.13;100501.19;5039696;28;20045;-67
2021/12/29 09:52:48;;;;;;;12.10;6.82;;;;;;;7.95;98.41;100518.06;5042888;28;20041;-68
2021/12/29 09:55:18;;;;;;;14.20;7.18;;;;;;;8.02;96.45;100519.06;5043841;28;20048;-68
2021/12/29 09:57:46;;;;;;;14.68;7.95;;;;;;;8.04;97.04;100517.16;5043097;28;20102;-68
2021/12/29 10:00:56;;;;;;;16.40;8.88;;;;;;;8.06;97.66;100504.94;5043344;28;20033;-68
2021/12/29 10:03:24;;;;;;;15.45;7.75;;;;;;;8.07;97.42;100498.00;5004614;28;20041;-68
2021/12/29 10:05:53;;;;;;;18.08;8.15;;;;;;;8.07;97.05;100500.56;5041719;28;20036;-67
2021/12/29 10:08:24;;;;;;;14.35;7.45;;;;;;;8.10;96.98;100492.50;5041857;28;20083;-68
2021/12/29 10:10:54;;;;;;;14.15;8.15;;;;;;;8.12;97.10;100495.78;5036795;28;20059;-68
2021/12/29 10:13:20;;;;;;;15.98;9.32;;;;;;;8.10;96.91;100487.34;5021255;28;20039;-68
2021/12/29 10:15:50;;;;;;;14.50;7.85;;;;;;;8.14;96.77;100484.34;5040263;28;20039;-68
2021/12/29 10:18:18;;;;;;;15.80;7.55;;;;;;;8.11;96.67;100499.31;5042667;28;20089;-68
2021/12/29 10:21:00;;;;;;;15.45;7.25;;;;;;;8.10;97.17;100489.94;5035582;28;20053;-68
2021/12/29 10:23:31;;;;;;;16.50;7.68;;;;;;;8.06;97.60;100484.28;5036008;28;20031;-67
2021/12/29 10:26:10;;;;;;;18.42;7.70;;;;;;;8.14;97.60;100484.34;5040944;28;20036;-68
2021/12/29 10:28:39;;;;;;;16.52;7.82;;;;;;;8.14;97.23;100474.00;5052952;28;20040;-68
2021/12/29 10:31:07;;;;;;;12.93;6.78;;;;;;;8.15;97.53;100473.03;5029413;28;20040;-67
2021/12/29 10:33:39;;;;;;;19.25;7.22;;;;;;;8.16;97.52;100466.91;5039971;28;20410;-70
2021/12/29 10:36:17;;;;;;;18.58;7.15;;;;;;;8.17;96.91;100480.63;5031219;28;20048;-68
2021/12/29 10:38:50;;;;;;;14.75;6.97;;;;;;;8.13;97.02;100477.53;5044976;28;20033;-68
2021/12/29 10:41:16;;;;;;;16.85;7.63;;;;;;;8.14;97.45;100473.19;5042183;28;20079;-68
2021/12/29 10:43:51;;;;;;;13.60;5.97;;;;;;;8.11;97.57;100474.28;5044409;28;20037;-68
2021/12/29 10:46:21;;;;;;;16.02;6.65;;;;;;;8.21;96.92;100471.63;5046182;28;20075;-68
2021/12/29 10:48:49;;;;;;;15.75;6.45;;;;;;;8.17;97.07;100472.88;5037598;28;20349;-67
2021/12/29 10:51:16;;;;;;;18.40;6.65;;;;;;;8.21;97.30;100479.38;5046862;28;20422;-68
2021/12/29 10:53:44;;;;;;;16.48;6.22;;;;;;;8.24;97.38;100483.44;5037986;28;20037;-68
2021/12/29 10:56:23;;;;;;;14.30;6.28;;;;;;;8.25;97.55;100474.72;5042122;28;20017;-68
2021/12/29 10:58:52;;;;;;;9.88;5.25;;;;;;;8.30;97.30;100469.94;5038545;28;20029;-68
2021/12/29 11:01:20;;;;;;;13.07;6.03;;;;;;;8.37;96.74;100470.97;5036462;28;20064;-68
2021/12/29 11:03:52;;;;;;;23.23;5.45;;;;;;;8.37;96.97;100464.03;5039995;28;20056;-68
2021/12/29 11:06:20;;;;;;;14.27;5.88;;;;;;;8.41;97.11;100458.56;5036737;28;20100;-68
2021/12/29 11:08:52;;;;;;;15.15;5.63;;;;;;;8.58;96.56;100457.75;5021629;28;20101;-68
2021/12/29 11:11:25;;;;;;;18.00;5.40;;;;;;;8.55;96.21;100463.19;5036270;28;20036;-68
2021/12/29 11:13:53;;;;;;;;;;;;;;;8.50;96.00;100460.28;5044223;28;20040;-68
2021/12/29 11:16:19;;;;;;;16.15;5.82;;;;;;;8.51;96.35;100452.38;5037831;28;19919;-68
2021/12/29 11:18:49;;;;;;;20.02;5.10;;;;;;;8.55;96.60;100452.88;5036308;28;20037;-68
2021/12/29 11:21:27;;;;;;;14.60;5.18;;;;;;;8.54;96.15;100461.59;5035773;28;20506;-68
2021/12/29 11:23:53;;;;;;;14.55;5.10;;;;;;;8.53;96.36;100465.97;5042282;28;20036;-68